createdAt,value
2019-02-09T00:01:35.559Z,100758.67
2019-02-09T00:03:42.914Z,100750.06
2019-02-09T00:05:50.419Z,100746.96
2019-02-09T00:07:57.819Z,100745.25
2019-02-09T00:10:05.216Z,100746.96
2019-02-09T00:12:12.742Z,100742.25
2019-02-09T00:14:20.092Z,100743.95
2019-02-09T00:16:28.607Z,100750.03
2019-02-09T00:18:35.969Z,100742.28
2019-02-09T00:20:43.528Z,100745.25
2019-02-09T00:22:50.808Z,100745.70
2019-02-09T00:24:58.189Z,100738.73
2019-02-09T00:27:05.752Z,100743.10
2019-02-09T00:29:13.001Z,100748.33
2019-02-09T00:31:20.445Z,100737.97
2019-02-09T00:33:27.748Z,100743.13
2019-02-09T00:35:35.128Z,100742.34
2019-02-09T00:37:42.618Z,100737.17
2019-02-09T00:39:50.181Z,100734.61
2019-02-09T00:41:57.499Z,100736.34
2019-02-09T00:44:04.923Z,100739.80
2019-02-09T00:46:12.779Z,100735.05
2019-02-09T00:48:20.166Z,100732.05
2019-02-09T00:50:27.765Z,100730.33
2019-02-09T00:52:35.259Z,100730.36
2019-02-09T00:54:42.507Z,100733.84
2019-02-09T00:56:49.853Z,100730.81
2019-02-09T00:58:57.478Z,100721.74
2019-02-09T01:01:04.941Z,100718.70
2019-02-09T01:03:12.492Z,100708.77
2019-02-09T01:05:22.686Z,100715.25
2019-02-09T01:07:30.210Z,100708.75
2019-02-09T01:09:37.640Z,100705.71
2019-02-09T01:11:45.346Z,100710.46
2019-02-09T01:13:52.694Z,100700.53
2019-02-09T01:16:00.165Z,100692.30
2019-02-09T01:18:07.946Z,100696.16
2019-02-09T01:20:21.505Z,100691.47
2019-02-09T01:22:29.032Z,100693.19
2019-02-09T01:24:36.575Z,100692.33
2019-02-09T01:26:43.972Z,100686.76
2019-02-09T01:28:51.514Z,100689.33
2019-02-09T01:30:58.861Z,100680.24
2019-02-09T01:33:06.289Z,100679.45
2019-02-09T01:35:14.079Z,100680.77
2019-02-09T01:37:21.620Z,100670.81
2019-02-09T01:39:29.113Z,100670.36
2019-02-09T01:41:36.593Z,100674.25
2019-02-09T01:43:43.994Z,100672.54
2019-02-09T01:45:51.306Z,100670.36
2019-02-09T01:47:58.590Z,100664.32
2019-02-09T01:50:07.287Z,100666.92
2019-02-09T01:52:14.647Z,100663.03
2019-02-09T01:54:21.988Z,100660.44
2019-02-09T01:56:29.430Z,100657.45
2019-02-09T01:58:36.892Z,100653.59
2019-02-09T02:00:44.349Z,100643.63
2019-02-09T02:02:51.913Z,100650.58
2019-02-09T02:04:59.447Z,100638.86
2019-02-09T02:07:06.937Z,100633.68
2019-02-09T02:09:14.452Z,100633.66
2019-02-09T02:11:21.928Z,100635.80
2019-02-09T02:13:29.439Z,100634.51
2019-02-09T02:15:37.357Z,100630.62
2019-02-09T02:17:44.862Z,100624.55
2019-02-09T02:19:52.190Z,100619.36
2019-02-09T02:21:59.612Z,100622.81
2019-02-09T02:24:07.059Z,100614.59
2019-02-09T02:26:17.963Z,100612.44
2019-02-09T02:28:25.684Z,100621.08
2019-02-09T02:30:35.791Z,100617.19
2019-02-09T02:32:43.185Z,100622.75
2019-02-09T02:34:50.711Z,100625.38
2019-02-09T02:36:58.073Z,100614.56
2019-02-09T02:39:07.978Z,100607.22
2019-02-09T02:41:15.391Z,100614.97
2019-02-09T02:43:22.911Z,100611.05
2019-02-09T02:45:30.255Z,100611.97
2019-02-09T02:47:37.700Z,100607.66
2019-02-09T02:49:45.058Z,100609.41
2019-02-09T02:51:52.631Z,100601.62
2019-02-09T02:54:00.191Z,100603.33
2019-02-09T02:56:07.674Z,100605.07
2019-02-09T02:58:14.959Z,100599.41
2019-02-09T03:00:31.841Z,100594.29
2019-02-09T03:02:33.869Z,100597.70
2019-02-09T03:04:41.374Z,100593.81
2019-02-09T03:06:48.848Z,100583.44
2019-02-09T03:08:56.314Z,100581.66
2019-02-09T03:11:03.773Z,100582.11
2019-02-09T03:13:11.252Z,100590.37
2019-02-09T03:15:24.468Z,100580.40
2019-02-09T03:17:31.886Z,100580.81
2019-02-09T03:19:39.103Z,100577.36
2019-02-09T03:21:46.429Z,100585.59
2019-02-09T03:23:53.908Z,100573.52
2019-02-09T03:26:01.299Z,100565.25
2019-02-09T03:28:08.906Z,100560.91
2019-02-09T03:30:17.371Z,100562.25
2019-02-09T03:32:24.844Z,100554.02
2019-02-09T03:34:32.211Z,100554.03
2019-02-09T03:36:39.664Z,100552.28
2019-02-09T03:38:47.073Z,100548.84
2019-02-09T03:40:54.545Z,100549.69
2019-02-09T03:43:01.787Z,100540.17
2019-02-09T03:45:12.971Z,100541.47
2019-02-09T03:47:21.489Z,100532.83
2019-02-09T03:49:28.947Z,100537.53
2019-02-09T03:51:36.386Z,100536.23
2019-02-09T03:53:43.794Z,100532.75
2019-02-09T03:55:51.189Z,100526.67
2019-02-09T03:57:58.560Z,100522.34
2019-02-09T04:00:09.498Z,100524.93
2019-02-09T04:02:16.944Z,100522.73
2019-02-09T04:04:24.372Z,100521.03
2019-02-09T04:06:31.772Z,100513.70
2019-02-09T04:08:39.237Z,100508.95
2019-02-09T04:10:46.680Z,100505.52
2019-02-09T04:12:53.896Z,100502.44
2019-02-09T04:15:01.175Z,100498.58
2019-02-09T04:17:08.476Z,100497.23
2019-02-09T04:19:15.986Z,100489.91
2019-02-09T04:21:23.430Z,100496.75
2019-02-09T04:23:30.878Z,100486.38
2019-02-09T04:25:38.248Z,100487.17
2019-02-09T04:27:45.755Z,100484.13
2019-02-09T04:29:52.927Z,100478.53
2019-02-09T04:32:00.317Z,100471.59
2019-02-09T04:34:07.858Z,100480.23
2019-02-09T04:36:15.308Z,100471.16
2019-02-09T04:38:22.731Z,100462.52
2019-02-09T04:40:33.767Z,100456.88
2019-02-09T04:42:41.153Z,100462.92
2019-02-09T04:44:48.487Z,100455.59
2019-02-09T04:46:55.861Z,100455.97
2019-02-09T04:49:03.285Z,100457.72
2019-02-09T04:51:10.657Z,100462.47
2019-02-09T04:53:17.950Z,100462.85
2019-02-09T04:55:26.122Z,100458.56
2019-02-09T04:57:33.530Z,100459.86
2019-02-09T04:59:40.915Z,100449.03
2019-02-09T05:01:48.295Z,100449.50
2019-02-09T05:03:55.754Z,100444.30
2019-02-09T05:06:03.158Z,100445.59
2019-02-09T05:08:10.409Z,100441.25
2019-02-09T05:10:18.501Z,100440.75
2019-02-09T05:12:25.947Z,100440.30
2019-02-09T05:14:33.310Z,100438.16
2019-02-09T05:16:40.747Z,100436.41
2019-02-09T05:18:48.055Z,100432.11
2019-02-09T05:20:55.402Z,100427.36
2019-02-09T05:23:02.639Z,100427.77
2019-02-09T05:25:10.464Z,100434.25
2019-02-09T05:27:18.087Z,100433.80
2019-02-09T05:29:25.282Z,100438.09
2019-02-09T05:31:32.742Z,100430.35
2019-02-09T05:33:41.126Z,100436.80
2019-02-09T05:35:48.668Z,100433.74
2019-02-09T05:37:55.951Z,100428.95
2019-02-09T05:40:03.468Z,100434.58
2019-02-09T05:42:10.835Z,100428.11
2019-02-09T05:44:18.310Z,100425.89
2019-02-09T05:46:25.607Z,100436.68
2019-02-09T05:48:33.083Z,100434.58
2019-02-09T05:50:40.542Z,100435.81
2019-02-09T05:52:48.005Z,100427.66
2019-02-09T05:54:55.449Z,100430.64
2019-02-09T05:57:02.930Z,100424.59
2019-02-09T05:59:10.242Z,100414.22
2019-02-09T06:01:17.831Z,100420.31
2019-02-09T06:03:25.271Z,100415.12
2019-02-09T06:05:32.736Z,100407.72
2019-02-09T06:07:40.246Z,100403.43
2019-02-09T06:09:47.630Z,100397.30
2019-02-09T06:11:54.944Z,100394.23
2019-02-09T06:14:02.414Z,100395.59
2019-02-09T06:16:09.705Z,100402.53
2019-02-09T06:18:17.179Z,100400.80
2019-02-09T06:20:26.085Z,100391.18
2019-02-09T06:22:33.474Z,100395.14
2019-02-09T06:24:40.888Z,100395.53
2019-02-09T06:26:48.363Z,100383.84
2019-02-09T06:28:55.676Z,100398.97
2019-02-09T06:31:02.966Z,100391.12
2019-02-09T06:33:10.238Z,100393.71
2019-02-09T06:35:17.520Z,100391.49
2019-02-09T06:37:24.854Z,100385.47
2019-02-09T06:39:32.180Z,100378.51
2019-02-09T06:41:39.619Z,100385.39
2019-02-09T06:43:47.122Z,100370.27
2019-02-09T06:45:54.465Z,100372.87
2019-02-09T06:48:39.301Z,100371.10
2019-02-09T06:50:46.759Z,100363.25
2019-02-09T06:52:54.094Z,100353.66
2019-02-09T06:55:01.671Z,100353.62
2019-02-09T06:57:08.998Z,100352.26
2019-02-09T06:59:16.445Z,100349.53
2019-02-09T07:01:23.803Z,100347.31
2019-02-09T07:03:31.345Z,100346.00
2019-02-09T07:05:38.890Z,100339.03
2019-02-09T07:07:46.422Z,100345.84
2019-02-09T07:09:53.712Z,100333.30
2019-02-09T07:12:01.140Z,100332.39
2019-02-09T07:14:08.589Z,100334.06
2019-02-09T07:16:15.996Z,100323.27
2019-02-09T07:18:23.414Z,100320.16
2019-02-09T07:20:30.677Z,100320.55
2019-02-09T07:22:37.977Z,100321.38
2019-02-09T07:24:45.422Z,100320.08
2019-02-09T07:26:52.640Z,100318.77
2019-02-09T07:29:00.113Z,100328.70
2019-02-09T07:31:07.573Z,100316.53
2019-02-09T07:33:15.027Z,100318.67
2019-02-09T07:35:22.467Z,100313.01
2019-02-09T07:37:29.772Z,100315.44
2019-02-09T07:39:37.220Z,100311.84
2019-02-09T07:41:44.329Z,100306.14
2019-02-09T07:43:51.701Z,100306.50
2019-02-09T07:45:58.896Z,100298.27
2019-02-09T07:48:06.500Z,100296.03
2019-02-09T07:50:15.777Z,100290.29
2019-02-09T07:52:23.069Z,100290.25
2019-02-09T07:54:30.556Z,100284.15
2019-02-09T07:56:37.783Z,100270.27
2019-02-09T07:58:45.050Z,100271.11
2019-02-09T08:00:52.394Z,100274.91
2019-02-09T08:02:59.610Z,100271.79
2019-02-09T08:05:07.237Z,100275.58
2019-02-09T08:07:14.879Z,100269.50
2019-02-09T08:09:22.220Z,100267.52
2019-02-09T08:11:29.418Z,100268.99
2019-02-09T08:13:36.920Z,100268.56
2019-02-09T08:15:44.222Z,100261.95
2019-02-09T08:17:51.707Z,100260.89
2019-02-09T08:19:59.290Z,100251.59
2019-02-09T08:22:06.676Z,100245.45
2019-02-09T08:24:13.901Z,100236.47
2019-02-09T08:26:21.275Z,100232.25
2019-02-09T08:28:28.516Z,100232.83
2019-02-09T08:30:42.167Z,100228.64
2019-02-09T08:32:49.467Z,100219.55
2019-02-09T08:34:56.984Z,100220.41
2019-02-09T08:37:04.701Z,100216.02
2019-02-09T08:39:12.175Z,100215.19
2019-02-09T08:41:19.349Z,100220.42
2019-02-09T08:43:26.595Z,100227.92
2019-02-09T08:45:34.133Z,100217.93
2019-02-09T08:47:41.430Z,100217.91
2019-02-09T08:49:48.801Z,100214.42
2019-02-09T08:51:56.474Z,100210.89
2019-02-09T08:54:03.830Z,100209.53
2019-02-09T08:56:11.188Z,100202.52
2019-02-09T08:58:18.661Z,100200.72
2019-02-09T09:00:28.193Z,100197.18
2019-02-09T09:02:35.508Z,100197.97
2019-02-09T09:04:42.703Z,100192.31
2019-02-09T09:06:50.175Z,100195.68
2019-02-09T09:08:57.506Z,100188.69
2019-02-09T09:11:04.807Z,100185.21
2019-02-09T09:13:12.126Z,100183.88
2019-02-09T09:15:33.260Z,100186.79
2019-02-09T09:17:40.613Z,100188.41
2019-02-09T09:19:47.967Z,100191.80
2019-02-09T09:21:55.250Z,100179.54
2019-02-09T09:24:02.572Z,100176.45
2019-02-09T09:26:10.090Z,100184.20
2019-02-09T09:28:17.360Z,100174.91
2019-02-09T09:30:26.168Z,100184.45
2019-02-09T09:32:33.768Z,100183.88
2019-02-09T09:34:41.110Z,100174.70
2019-02-09T09:36:48.846Z,100179.33
2019-02-09T09:38:56.509Z,100167.22
2019-02-09T09:41:03.890Z,100175.76
2019-02-09T09:43:11.435Z,100162.23
2019-02-09T09:45:22.654Z,100153.48
2019-02-09T09:47:30.076Z,100158.66
2019-02-09T09:49:37.511Z,100163.33
2019-02-09T09:51:44.926Z,100157.95
2019-02-09T09:53:52.214Z,100159.25
2019-02-09T09:55:59.791Z,100147.88
2019-02-09T09:58:07.388Z,100138.70
2019-02-09T10:00:16.626Z,100149.67
2019-02-09T10:02:23.903Z,100126.98
2019-02-09T10:04:31.218Z,100135.63
2019-02-09T10:06:38.354Z,100123.44
2019-02-09T10:08:45.867Z,100118.70
2019-02-09T10:11:26.202Z,100113.50
2019-02-09T10:13:25.627Z,100119.48
2019-02-09T10:15:33.272Z,100127.89
2019-02-09T10:17:40.784Z,100123.98
2019-02-09T10:20:01.097Z,100120.98
2019-02-09T10:22:09.028Z,100123.52
2019-02-09T10:24:16.447Z,100118.16
2019-02-09T10:26:32.770Z,100121.58
2019-02-09T10:28:40.543Z,100120.59
2019-02-09T10:30:49.795Z,100128.36
2019-02-09T10:32:57.191Z,100111.61
2019-02-09T10:35:04.668Z,100109.88
2019-02-09T10:37:12.118Z,100104.59
2019-02-09T10:39:19.553Z,100088.94
2019-02-09T10:41:27.170Z,100091.86
2019-02-09T10:43:35.163Z,100089.56
2019-02-09T10:45:43.243Z,100090.23
2019-02-09T10:47:50.913Z,100081.02
2019-02-09T10:50:00.678Z,100086.70
2019-02-09T10:52:11.620Z,100081.41
2019-02-09T10:54:24.021Z,100084.44
2019-02-09T10:56:35.665Z,100078.72
2019-02-09T10:58:44.181Z,100079.38
2019-02-09T11:01:37.513Z,100071.97
2019-02-09T11:03:47.001Z,100074.52
2019-02-09T11:05:56.153Z,100056.96
2019-02-09T11:08:05.286Z,100048.02
2019-02-09T11:10:15.150Z,100055.05
2019-02-09T11:12:24.147Z,100047.67
2019-02-09T11:14:35.008Z,100055.23
2019-02-09T11:16:44.777Z,100058.45
2019-02-09T11:18:54.966Z,100075.23
2019-02-09T11:21:04.710Z,100060.41
2019-02-09T11:23:15.261Z,100074.92
2019-02-09T11:25:23.044Z,100077.47
2019-02-09T11:27:30.655Z,100070.11
2019-02-09T11:29:38.169Z,100073.39
2019-02-09T11:31:46.168Z,100069.43
2019-02-09T11:33:53.661Z,100065.67
2019-02-09T11:36:01.218Z,100063.52
2019-02-09T11:38:08.705Z,100061.75
2019-02-09T11:40:17.503Z,100066.27
2019-02-09T11:42:26.438Z,100071.41
2019-02-09T11:44:40.863Z,100066.22
2019-02-09T11:46:43.267Z,100062.14
2019-02-09T11:48:50.704Z,100071.20
2019-02-09T11:50:59.102Z,100062.94
2019-02-09T11:53:07.351Z,100052.33
2019-02-09T11:55:15.955Z,100054.39
2019-02-09T11:57:23.535Z,100054.06
2019-02-09T11:59:31.148Z,100043.52
2019-02-09T12:01:38.690Z,100032.55
2019-02-09T12:03:46.122Z,100035.55
2019-02-09T12:05:53.560Z,100029.30
2019-02-09T12:08:01.175Z,100029.09
2019-02-09T12:10:09.454Z,100030.91
2019-02-09T12:12:16.670Z,100030.80
2019-02-09T12:14:24.066Z,100025.11
2019-02-09T12:16:31.506Z,100031.94
2019-02-09T12:18:38.816Z,100033.42
2019-02-09T12:20:46.244Z,100027.09
2019-02-09T12:22:53.425Z,100033.53
2019-02-09T12:25:00.731Z,100031.02
2019-02-09T12:27:08.257Z,100021.35
2019-02-09T12:29:15.738Z,100031.98
2019-02-09T12:31:23.145Z,100036.15
2019-02-09T12:33:30.633Z,100035.52
2019-02-09T12:35:37.966Z,100039.38
2019-02-09T12:37:45.452Z,100042.89
2019-02-09T12:39:52.876Z,100046.55
2019-02-09T12:42:00.526Z,100034.08
2019-02-09T12:44:07.933Z,100040.67
2019-02-09T12:46:18.824Z,100036.42
2019-02-09T12:48:26.241Z,100042.11
2019-02-09T12:50:35.246Z,100043.42
2019-02-09T12:52:42.762Z,100041.09
2019-02-09T12:54:50.171Z,100039.36
2019-02-09T12:56:57.639Z,100040.80
2019-02-09T12:59:05.148Z,100041.60
2019-02-09T13:01:12.651Z,100043.11
2019-02-09T13:03:31.350Z,100039.83
2019-02-09T13:05:38.991Z,100038.34
2019-02-09T13:07:46.501Z,100047.12
2019-02-09T13:09:53.975Z,100047.22
2019-02-09T13:12:01.520Z,100044.50
2019-02-09T13:14:09.112Z,100042.95
2019-02-09T13:16:16.723Z,100047.73
2019-02-09T13:18:24.310Z,100046.47
2019-02-09T13:20:31.482Z,100053.00
2019-02-09T13:22:39.235Z,100053.88
2019-02-09T13:24:46.773Z,100046.70
2019-02-09T13:26:54.173Z,100068.27
2019-02-09T13:29:01.691Z,100071.73
2019-02-09T13:31:08.785Z,100064.23
2019-02-09T13:33:16.308Z,100076.22
2019-02-09T13:35:23.772Z,100073.78
2019-02-09T13:37:31.202Z,100084.20
2019-02-09T13:39:38.573Z,100083.28
2019-02-09T13:41:45.774Z,100084.53
2019-02-09T13:43:53.475Z,100088.36
2019-02-09T13:46:00.831Z,100074.20
2019-02-09T13:48:08.353Z,100078.55
2019-02-09T13:50:15.922Z,100072.73
2019-02-09T13:52:23.386Z,100064.97
2019-02-09T13:54:30.844Z,100068.70
2019-02-09T13:56:38.320Z,100061.06
2019-02-09T13:58:45.811Z,100051.13
2019-02-09T14:00:53.205Z,100055.92
2019-02-09T14:03:00.693Z,100058.07
2019-02-09T14:05:08.706Z,100052.34
2019-02-09T14:07:16.477Z,100057.91
2019-02-09T14:09:24.208Z,100057.45
2019-02-09T14:11:31.774Z,100056.49
2019-02-09T14:13:39.224Z,100052.53
2019-02-09T14:15:46.772Z,100051.61
2019-02-09T14:17:54.094Z,100048.62
2019-02-09T14:20:01.864Z,100045.20
2019-02-09T14:22:09.303Z,100039.47
2019-02-09T14:24:16.759Z,100038.13
2019-02-09T14:26:24.212Z,100036.36
2019-02-09T14:28:31.710Z,100036.16
2019-02-09T14:30:39.242Z,100030.02
2019-02-09T14:32:46.890Z,100037.80
2019-02-09T14:34:54.271Z,100042.48
2019-02-09T14:37:01.641Z,100040.21
2019-02-09T14:39:12.747Z,100043.67
2019-02-09T14:41:20.010Z,100044.06
2019-02-09T14:43:27.522Z,100044.43
2019-02-09T14:45:41.080Z,100044.02
2019-02-09T14:47:48.910Z,100050.00
2019-02-09T14:49:56.572Z,100042.88
2019-02-09T14:52:04.780Z,100048.69
2019-02-09T14:54:13.012Z,100047.56
2019-02-09T14:56:20.613Z,100047.68
2019-02-09T14:58:28.687Z,100020.63
2019-02-09T15:00:59.165Z,100030.48
2019-02-09T15:03:08.337Z,100045.59
2019-02-09T15:05:16.314Z,100058.56
2019-02-09T15:07:24.021Z,100054.86
2019-02-09T15:09:31.485Z,100066.53
2019-02-09T15:11:38.904Z,100064.42
2019-02-09T15:13:46.425Z,100073.50
2019-02-09T15:16:14.667Z,100072.99
2019-02-09T15:18:22.146Z,100072.10
2019-02-09T15:20:33.905Z,100075.72
2019-02-09T15:22:41.660Z,100074.97
2019-02-09T15:24:49.375Z,100075.43
2019-02-09T15:26:57.057Z,100073.37
2019-02-09T15:29:04.579Z,100085.03
2019-02-09T15:31:13.081Z,100076.61
2019-02-09T15:33:20.768Z,100078.38
2019-02-09T15:35:28.164Z,100077.45
2019-02-09T15:37:35.851Z,100074.50
2019-02-09T15:39:43.259Z,100081.59
2019-02-09T15:41:50.765Z,100084.33
2019-02-09T15:43:58.280Z,100083.02
2019-02-09T15:46:05.840Z,100081.75
2019-02-09T15:48:13.407Z,100072.44
2019-02-09T15:50:20.834Z,100077.42
2019-02-09T15:52:28.499Z,100080.91
2019-02-09T15:54:36.384Z,100080.11
2019-02-09T15:56:43.890Z,100066.02
2019-02-09T15:58:51.354Z,100079.19
2019-02-09T16:00:58.873Z,100078.42
2019-02-09T16:03:07.084Z,100080.31
2019-02-09T16:05:14.816Z,100087.05
2019-02-09T16:07:22.243Z,100092.67
2019-02-09T16:09:30.151Z,100082.22
2019-02-09T16:11:37.695Z,100081.71
2019-02-09T16:13:45.973Z,100084.83
2019-02-09T16:15:53.609Z,100098.13
2019-02-09T16:18:01.496Z,100100.74
2019-02-09T16:20:10.999Z,100095.95
2019-02-09T16:22:18.932Z,100104.56
2019-02-09T16:24:26.629Z,100100.76
2019-02-09T16:26:34.216Z,100110.98
2019-02-09T16:28:41.685Z,100111.91
2019-02-09T16:30:49.295Z,100120.70
2019-02-09T16:32:56.893Z,100110.38
2019-02-09T16:35:04.451Z,100118.44
2019-02-09T16:37:12.035Z,100121.09
2019-02-09T16:39:19.592Z,100123.70
2019-02-09T16:41:27.066Z,100123.24
2019-02-09T16:43:34.763Z,100127.73
2019-02-09T16:45:42.112Z,100121.44
2019-02-09T16:47:50.367Z,100128.31
2019-02-09T16:49:57.934Z,100125.13
2019-02-09T16:52:05.634Z,100119.94
2019-02-09T16:54:12.966Z,100115.33
2019-02-09T16:56:20.847Z,100126.92
2019-02-09T16:58:28.401Z,100122.05
2019-02-09T17:00:41.308Z,100119.89
2019-02-09T17:02:48.759Z,100124.04
2019-02-09T17:04:56.390Z,100129.98
2019-02-09T17:07:03.811Z,100125.06
2019-02-09T17:09:11.658Z,100124.28
2019-02-09T17:11:19.360Z,100133.77
2019-02-09T17:13:26.877Z,100135.04
2019-02-09T17:15:34.370Z,100131.30
2019-02-09T17:17:41.958Z,100136.28
2019-02-09T17:19:50.411Z,100134.17
2019-02-09T17:21:58.021Z,100138.47
2019-02-09T17:24:05.981Z,100133.66
2019-02-09T17:26:15.021Z,100138.56
2019-02-09T17:28:22.758Z,100133.51
2019-02-09T17:30:30.993Z,100137.09
2019-02-09T17:32:38.883Z,100138.73
2019-02-09T17:34:46.505Z,100139.33
2019-02-09T17:36:53.988Z,100142.86
2019-02-09T17:39:01.826Z,100145.06
2019-02-09T17:41:09.424Z,100143.38
2019-02-09T17:43:17.037Z,100147.97
2019-02-09T17:45:31.171Z,100145.86
2019-02-09T17:47:38.851Z,100143.38
2019-02-09T17:49:46.679Z,100140.51
2019-02-09T17:51:54.440Z,100138.53
2019-02-09T17:54:01.852Z,100140.51
2019-02-09T17:56:09.538Z,100149.58
2019-02-09T17:58:17.340Z,100144.85
2019-02-09T18:00:48.487Z,100142.48
2019-02-09T18:02:56.197Z,100139.57
2019-02-09T18:05:03.724Z,100142.06
2019-02-09T18:07:11.417Z,100142.19
2019-02-09T18:09:18.986Z,100148.85
2019-02-09T18:11:26.585Z,100145.82
2019-02-09T18:13:34.010Z,100152.14
2019-02-09T18:15:41.594Z,100154.93
2019-02-09T18:17:49.046Z,100153.33
2019-02-09T18:19:56.589Z,100145.84
2019-02-09T18:22:04.070Z,100156.06
2019-02-09T18:24:11.662Z,100155.56
2019-02-09T18:26:19.108Z,100152.90
2019-02-09T18:28:26.820Z,100151.30
2019-02-09T18:30:34.193Z,100154.42
2019-02-09T18:32:41.732Z,100154.88
2019-02-09T18:34:55.874Z,100152.61
2019-02-09T18:36:58.732Z,100152.68
2019-02-09T18:39:10.852Z,100162.77
2019-02-09T18:41:18.285Z,100157.25
2019-02-09T18:43:25.844Z,100157.77
2019-02-09T18:45:33.284Z,100156.41
2019-02-09T18:47:40.804Z,100156.20
2019-02-09T18:49:48.364Z,100162.27
2019-02-09T18:51:55.973Z,100172.34
2019-02-09T18:54:03.597Z,100167.20
2019-02-09T18:56:11.064Z,100163.91
2019-02-09T18:58:19.798Z,100164.95
2019-02-09T19:00:29.905Z,100165.33
2019-02-09T19:02:38.620Z,100162.50
2019-02-09T19:04:46.589Z,100166.09
2019-02-09T19:06:54.570Z,100176.58
2019-02-09T19:09:02.194Z,100179.81
2019-02-09T19:11:10.286Z,100175.80
2019-02-09T19:13:18.095Z,100174.27
2019-02-09T19:15:27.506Z,100174.39
2019-02-09T19:17:35.402Z,100177.55
2019-02-09T19:19:43.127Z,100168.52
2019-02-09T19:21:50.646Z,100178.67
2019-02-09T19:23:58.341Z,100179.20
2019-02-09T19:26:05.843Z,100180.28
2019-02-09T19:28:13.280Z,100180.94
2019-02-09T19:30:22.417Z,100183.83
2019-02-09T19:32:30.367Z,100190.81
2019-02-09T19:34:37.931Z,100188.28
2019-02-09T19:36:45.799Z,100191.08
2019-02-09T19:38:53.309Z,100198.50
2019-02-09T19:41:01.125Z,100199.72
2019-02-09T19:43:08.629Z,100203.22
2019-02-09T19:45:25.767Z,100205.34
2019-02-09T19:47:33.471Z,100200.30
2019-02-09T19:49:41.024Z,100197.48
2019-02-09T19:51:48.593Z,100195.58
2019-02-09T19:53:56.239Z,100201.95
2019-02-09T19:56:03.969Z,100188.55
2019-02-09T19:58:11.543Z,100203.03
2019-02-09T20:00:26.018Z,100202.08
2019-02-09T20:02:33.734Z,100194.89
2019-02-09T20:04:41.411Z,100196.31
2019-02-09T20:06:48.906Z,100196.62
2019-02-09T20:08:58.062Z,100189.20
2019-02-09T20:11:05.295Z,100179.22
2019-02-09T20:13:13.051Z,100184.05
2019-02-09T20:15:21.125Z,100180.83
2019-02-09T20:17:28.922Z,100185.16
2019-02-09T20:19:36.600Z,100188.16
2019-02-09T20:21:44.434Z,100184.75
2019-02-09T20:23:52.006Z,100187.86
2019-02-09T20:25:59.489Z,100193.55
2019-02-09T20:28:07.221Z,100190.39
2019-02-09T20:30:24.359Z,100193.89
2019-02-09T20:32:31.942Z,100195.12
2019-02-09T20:34:39.677Z,100189.63
2019-02-09T20:36:47.257Z,100188.02
2019-02-09T20:38:54.891Z,100187.25
2019-02-09T20:41:06.655Z,100184.36
2019-02-09T20:43:16.578Z,100189.13
2019-02-09T20:45:24.076Z,100180.63
2019-02-09T20:47:31.747Z,100189.47
2019-02-09T20:49:40.919Z,100198.15
2019-02-09T20:51:48.511Z,100191.27
2019-02-09T20:53:55.969Z,100192.66
2019-02-09T20:56:03.329Z,100191.41
2019-02-09T20:58:12.830Z,100195.83
2019-02-09T21:00:22.227Z,100196.68
2019-02-09T21:02:29.633Z,100190.75
2019-02-09T21:04:37.145Z,100190.94
2019-02-09T21:06:44.599Z,100196.05
2019-02-09T21:08:52.609Z,100194.44
2019-02-09T21:11:00.256Z,100199.66
2019-02-09T21:13:08.374Z,100202.27
2019-02-09T21:15:16.264Z,100205.84
2019-02-09T21:17:23.895Z,100198.00
2019-02-09T21:19:31.330Z,100200.22
2019-02-09T21:21:38.693Z,100201.46
2019-02-09T21:23:46.282Z,100209.86
2019-02-09T21:25:53.547Z,100212.05
2019-02-09T21:28:01.113Z,100201.81
2019-02-09T21:30:09.774Z,100199.81
2019-02-09T21:32:17.268Z,100198.22
2019-02-09T21:34:24.830Z,100195.19
2019-02-09T21:36:32.493Z,100203.94
2019-02-09T21:38:40.043Z,100183.86
2019-02-09T21:40:47.298Z,100197.09
2019-02-09T21:42:55.943Z,100196.41
2019-02-09T21:45:03.569Z,100200.72
2019-02-09T21:47:11.331Z,100201.56
2019-02-09T21:49:19.153Z,100201.56
2019-02-09T21:51:26.625Z,100201.34
2019-02-09T21:53:34.190Z,100193.94
2019-02-09T21:55:42.288Z,100201.38
2019-02-09T21:57:49.882Z,100202.84
2019-02-09T21:59:57.402Z,100204.18
2019-02-09T22:02:05.260Z,100203.44
2019-02-09T22:04:13.391Z,100202.16
2019-02-09T22:06:21.267Z,100197.05
2019-02-09T22:08:28.906Z,100199.66
2019-02-09T22:10:36.427Z,100200.50
2019-02-09T22:12:44.417Z,100206.34
2019-02-09T22:14:52.263Z,100207.09
2019-02-09T22:17:00.154Z,100210.27
2019-02-09T22:19:07.667Z,100211.14
2019-02-09T22:21:15.146Z,100199.23
2019-02-09T22:23:22.838Z,100200.54
2019-02-09T22:25:30.209Z,100202.83
2019-02-09T22:27:38.377Z,100205.50
2019-02-09T22:29:46.783Z,100208.86
2019-02-09T22:31:54.788Z,100206.17
2019-02-09T22:34:02.546Z,100204.28
2019-02-09T22:36:09.956Z,100199.66
2019-02-09T22:38:17.540Z,100205.59
2019-02-09T22:40:31.064Z,100205.91
2019-02-09T22:42:38.758Z,100207.84
2019-02-09T22:44:46.662Z,100208.59
2019-02-09T22:46:55.542Z,100197.16
2019-02-09T22:49:04.739Z,100206.72
2019-02-09T22:51:12.445Z,100203.44
2019-02-09T22:53:20.131Z,100209.99
2019-02-09T22:55:28.119Z,100200.64
2019-02-09T22:57:35.713Z,100202.20
2019-02-09T22:59:43.681Z,100200.22
2019-02-09T23:01:52.342Z,100217.28
2019-02-09T23:04:28.151Z,100199.99
2019-02-09T23:07:04.486Z,100196.93
2019-02-09T23:09:22.466Z,100202.99
2019-02-09T23:11:37.337Z,100207.50
2019-02-09T23:13:55.021Z,100204.98
2019-02-09T23:16:11.730Z,100206.41
2019-02-09T23:18:19.738Z,100197.84
2019-02-09T23:20:27.342Z,100202.50
2019-02-09T23:22:34.812Z,100199.50
2019-02-09T23:24:45.245Z,100203.81
2019-02-09T23:26:52.792Z,100192.49
2019-02-09T23:29:00.538Z,100206.34
2019-02-09T23:31:08.225Z,100196.91
2019-02-09T23:33:15.983Z,100201.89
2019-02-09T23:35:23.339Z,100209.09
2019-02-09T23:37:30.911Z,100204.33
2019-02-09T23:39:38.552Z,100194.02
2019-02-09T23:41:46.059Z,100204.28
2019-02-09T23:43:53.647Z,100194.65
2019-02-09T23:46:01.364Z,100194.86
2019-02-09T23:48:08.818Z,100196.52
2019-02-09T23:50:16.364Z,100187.06
2019-02-09T23:52:23.993Z,100195.14
2019-02-09T23:54:31.485Z,100196.48
2019-02-09T23:56:38.943Z,100197.02
2019-02-09T23:58:46.472Z,100206.27
